createdAt,value
2019-02-07T00:00:27.516Z,7.12
2019-02-07T00:02:54.938Z,7.14
2019-02-07T00:05:24.189Z,7.08
2019-02-07T00:07:51.632Z,7.04
2019-02-07T00:10:19.094Z,6.99
2019-02-07T00:12:46.526Z,6.73
2019-02-07T00:15:13.996Z,6.99
2019-02-07T00:17:41.414Z,7.00
2019-02-07T00:20:09.661Z,6.73
2019-02-07T00:22:39.195Z,6.84
2019-02-07T00:25:04.584Z,6.93
2019-02-07T00:27:32.055Z,6.72
2019-02-07T00:29:59.480Z,6.95
2019-02-07T00:32:27.008Z,6.75
2019-02-07T00:34:54.425Z,6.81
2019-02-07T00:37:21.870Z,6.82
2019-02-07T00:39:49.339Z,6.84
2019-02-07T00:42:16.843Z,6.74
2019-02-07T00:44:50.699Z,6.70
2019-02-07T00:47:11.925Z,6.90
2019-02-07T00:49:39.399Z,6.99
2019-02-07T00:52:06.886Z,6.83
2019-02-07T00:54:34.536Z,6.57
2019-02-07T00:57:02.000Z,6.89
2019-02-07T00:59:29.521Z,6.90
2019-02-07T01:01:56.972Z,6.63
2019-02-07T01:04:24.436Z,6.68
2019-02-07T01:06:51.917Z,6.90
2019-02-07T01:09:19.363Z,6.53
2019-02-07T01:11:46.858Z,6.58
2019-02-07T01:14:14.316Z,6.56
2019-02-07T01:16:41.758Z,6.61
2019-02-07T01:19:09.249Z,6.75
2019-02-07T01:21:36.693Z,6.67
2019-02-07T01:24:05.231Z,6.45
2019-02-07T01:26:32.675Z,6.48
2019-02-07T01:29:00.146Z,6.34
2019-02-07T01:31:27.673Z,6.42
2019-02-07T01:33:55.922Z,6.30
2019-02-07T01:36:23.470Z,6.11
2019-02-07T01:38:50.942Z,6.07
2019-02-07T01:41:18.411Z,6.43
2019-02-07T01:43:45.865Z,6.55
2019-02-07T01:46:13.292Z,6.37
2019-02-07T01:48:40.793Z,6.43
2019-02-07T01:51:08.271Z,6.40
2019-02-07T01:53:35.752Z,6.19
2019-02-07T01:56:03.224Z,6.52
2019-02-07T01:58:30.746Z,6.46
2019-02-07T02:00:58.191Z,6.34
2019-02-07T02:03:25.655Z,6.11
2019-02-07T02:05:53.125Z,6.17
2019-02-07T02:08:22.300Z,6.20
2019-02-07T02:10:49.777Z,6.42
2019-02-07T02:13:17.216Z,6.10
2019-02-07T02:15:44.696Z,5.83
2019-02-07T02:18:12.174Z,6.02
2019-02-07T02:20:39.638Z,5.96
2019-02-07T02:23:08.207Z,5.53
2019-02-07T02:25:36.352Z,5.83
2019-02-07T02:28:03.827Z,5.90
2019-02-07T02:30:33.017Z,5.62
2019-02-07T02:33:00.739Z,5.80
2019-02-07T02:35:28.198Z,5.69
2019-02-07T02:37:55.644Z,5.50
2019-02-07T02:40:23.112Z,5.26
2019-02-07T02:42:50.564Z,5.53
2019-02-07T02:45:18.968Z,5.06
2019-02-07T02:47:46.424Z,5.55
2019-02-07T02:50:13.903Z,5.42
2019-02-07T02:52:42.985Z,5.44
2019-02-07T02:55:10.489Z,5.70
2019-02-07T02:57:37.940Z,5.40
2019-02-07T03:00:05.399Z,5.56
2019-02-07T03:02:35.315Z,5.41
2019-02-07T03:05:03.066Z,5.26
2019-02-07T03:07:45.468Z,5.17
2019-02-07T03:10:15.771Z,5.55
2019-02-07T03:12:56.069Z,5.43
2019-02-07T03:15:28.059Z,5.01
2019-02-07T03:17:56.400Z,5.40
2019-02-07T03:20:28.824Z,5.05
2019-02-07T03:23:01.769Z,4.99
2019-02-07T03:25:45.035Z,5.40
2019-02-07T03:28:12.520Z,4.98
2019-02-07T03:30:50.034Z,5.50
2019-02-07T03:33:17.527Z,5.27
2019-02-07T03:35:48.845Z,5.40
2019-02-07T03:38:18.131Z,5.24
2019-02-07T03:40:47.500Z,5.23
2019-02-07T03:43:21.323Z,5.29
2019-02-07T03:46:04.685Z,5.38
2019-02-07T03:48:37.486Z,5.24
2019-02-07T03:51:05.012Z,5.10
2019-02-07T03:53:37.840Z,5.40
2019-02-07T03:56:10.973Z,5.24
2019-02-07T03:58:43.992Z,5.18
2019-02-07T04:01:11.476Z,5.02
2019-02-07T04:03:55.625Z,5.11
2019-02-07T04:06:23.101Z,5.32
2019-02-07T04:09:06.177Z,5.29
2019-02-07T04:11:35.427Z,5.18
2019-02-07T04:14:08.382Z,5.34
2019-02-07T04:16:38.327Z,5.39
2019-02-07T04:19:08.123Z,5.46
2019-02-07T04:21:43.096Z,5.52
2019-02-07T04:24:18.337Z,5.49
2019-02-07T04:26:45.457Z,5.44
2019-02-07T04:29:17.478Z,5.54
2019-02-07T04:32:01.601Z,5.41
2019-02-07T04:34:43.945Z,5.42
2019-02-07T04:37:28.091Z,5.50
2019-02-07T04:39:56.935Z,5.36
2019-02-07T04:42:25.162Z,5.61
2019-02-07T04:44:52.667Z,5.47
2019-02-07T04:47:35.063Z,5.38
2019-02-07T04:50:04.988Z,5.45
2019-02-07T04:52:47.603Z,5.36
2019-02-07T04:55:30.708Z,5.61
2019-02-07T04:58:03.833Z,5.70
2019-02-07T05:00:46.203Z,5.68
2019-02-07T05:03:28.569Z,5.59
2019-02-07T05:05:58.919Z,5.43
2019-02-07T05:08:26.354Z,5.43
2019-02-07T05:10:54.694Z,5.25
2019-02-07T05:13:37.050Z,5.48
2019-02-07T05:16:12.964Z,5.64
2019-02-07T05:18:43.945Z,5.61
2019-02-07T05:21:17.132Z,5.71
2019-02-07T05:23:50.121Z,5.76
2019-02-07T05:26:22.029Z,5.78
2019-02-07T05:29:09.323Z,5.65
2019-02-07T05:31:43.365Z,5.50
2019-02-07T05:34:13.333Z,5.52
2019-02-07T05:36:57.667Z,5.69
2019-02-07T05:39:26.913Z,5.85
2019-02-07T05:42:11.046Z,5.89
2019-02-07T05:44:41.921Z,6.04
2019-02-07T05:47:24.267Z,5.91
2019-02-07T05:49:56.107Z,5.86
2019-02-07T05:52:27.974Z,6.00
2019-02-07T05:54:58.141Z,6.04
2019-02-07T05:57:45.329Z,6.01
2019-02-07T06:00:15.698Z,6.24
2019-02-07T06:02:44.624Z,6.15
2019-02-07T06:05:12.888Z,6.11
2019-02-07T06:07:42.370Z,6.09
2019-02-07T06:10:15.271Z,6.00
2019-02-07T06:13:01.417Z,5.96
2019-02-07T06:15:36.312Z,5.88
2019-02-07T06:18:04.240Z,5.97
2019-02-07T06:20:44.367Z,5.94
2019-02-07T06:23:26.756Z,5.81
2019-02-07T06:25:59.752Z,5.88
2019-02-07T06:28:43.013Z,5.72
2019-02-07T06:31:14.727Z,5.76
2019-02-07T06:33:43.002Z,5.82
2019-02-07T06:36:26.275Z,5.71
2019-02-07T06:38:54.518Z,5.83
2019-02-07T06:41:38.763Z,5.83
2019-02-07T06:44:09.693Z,5.83
2019-02-07T06:46:42.696Z,5.65
2019-02-07T06:49:16.712Z,5.72
2019-02-07T06:51:47.694Z,5.73
2019-02-07T06:54:15.213Z,5.96
2019-02-07T06:56:57.617Z,5.60
2019-02-07T06:59:25.102Z,5.60
2019-02-07T07:01:53.360Z,5.70
2019-02-07T07:04:24.788Z,5.86
2019-02-07T07:07:06.046Z,6.01
2019-02-07T07:09:49.725Z,6.09
2019-02-07T07:12:18.019Z,5.75
2019-02-07T07:14:57.321Z,5.87
2019-02-07T07:17:28.184Z,5.96
2019-02-07T07:20:11.329Z,5.82
2019-02-07T07:22:39.647Z,5.80
2019-02-07T07:25:07.558Z,5.93
2019-02-07T07:27:44.927Z,5.83
2019-02-07T07:30:17.334Z,5.97
2019-02-07T07:33:04.605Z,6.00
2019-02-07T07:35:32.076Z,5.99
2019-02-07T07:38:01.057Z,5.93
2019-02-07T07:40:44.336Z,6.11
2019-02-07T07:43:15.067Z,6.14
2019-02-07T07:45:48.202Z,5.90
2019-02-07T07:48:21.357Z,5.93
2019-02-07T07:50:54.369Z,6.13
2019-02-07T07:53:24.656Z,6.03
2019-02-07T07:55:56.483Z,5.92
2019-02-07T07:58:25.437Z,6.03
2019-02-07T08:00:56.704Z,5.98
2019-02-07T08:03:26.517Z,6.09
2019-02-07T08:05:55.734Z,6.24
2019-02-07T08:08:33.137Z,6.21
2019-02-07T08:11:21.454Z,6.15
2019-02-07T08:13:51.702Z,6.35
2019-02-07T08:16:24.838Z,6.33
2019-02-07T08:19:10.070Z,6.29
2019-02-07T08:21:38.316Z,6.41
2019-02-07T08:24:20.692Z,6.41
2019-02-07T08:26:53.920Z,6.36
2019-02-07T08:29:40.982Z,6.18
2019-02-07T08:32:15.878Z,6.41
2019-02-07T08:34:49.393Z,6.25
2019-02-07T08:37:22.514Z,6.42
2019-02-07T08:39:53.838Z,6.43
2019-02-07T08:42:37.027Z,6.58
2019-02-07T08:45:21.188Z,6.58
2019-02-07T08:47:58.693Z,6.40
2019-02-07T08:50:24.485Z,6.58
2019-02-07T08:52:54.569Z,6.47
2019-02-07T08:55:41.722Z,6.49
2019-02-07T08:58:11.090Z,6.38
2019-02-07T09:00:41.553Z,6.55
2019-02-07T09:03:22.875Z,6.55
2019-02-07T09:05:52.882Z,6.27
2019-02-07T09:08:31.154Z,6.54
2019-02-07T09:10:58.611Z,6.54
2019-02-07T09:13:37.866Z,6.72
2019-02-07T09:16:08.747Z,6.87
2019-02-07T09:18:47.996Z,6.93
2019-02-07T09:21:20.989Z,6.89
2019-02-07T09:24:02.000Z,6.87
2019-02-07T09:26:33.382Z,7.19
2019-02-07T09:29:05.940Z,6.96
2019-02-07T09:31:35.177Z,7.10
2019-02-07T09:34:08.301Z,7.19
2019-02-07T09:36:37.455Z,7.15
2019-02-07T09:39:15.597Z,7.13
2019-02-07T09:41:48.651Z,7.31
2019-02-07T09:44:17.447Z,7.21
2019-02-07T09:46:46.013Z,7.52
2019-02-07T09:49:16.030Z,7.36
2019-02-07T09:51:58.421Z,7.50
2019-02-07T09:54:34.453Z,7.57
2019-02-07T09:57:02.758Z,7.63
2019-02-07T09:59:47.899Z,7.71
2019-02-07T10:02:27.282Z,7.72
2019-02-07T10:04:57.532Z,7.74
2019-02-07T10:07:30.500Z,7.62
2019-02-07T10:10:14.262Z,7.80
2019-02-07T10:12:47.423Z,7.77
2019-02-07T10:15:18.131Z,7.84
2019-02-07T10:18:06.419Z,7.83
2019-02-07T10:20:50.573Z,7.87
2019-02-07T10:23:29.898Z,7.97
2019-02-07T10:25:59.336Z,8.17
2019-02-07T10:28:32.255Z,8.02
2019-02-07T10:31:03.529Z,8.04
2019-02-07T10:33:36.591Z,8.14
2019-02-07T10:36:20.370Z,7.99
2019-02-07T10:38:49.299Z,8.05
2019-02-07T10:41:18.673Z,8.16
2019-02-07T10:43:46.944Z,8.14
2019-02-07T10:46:21.557Z,8.21
2019-02-07T10:48:49.321Z,8.09
2019-02-07T10:51:19.321Z,8.18
2019-02-07T10:53:50.242Z,8.09
2019-02-07T10:56:18.093Z,8.20
2019-02-07T10:58:47.264Z,8.05
2019-02-07T11:01:29.643Z,8.15
2019-02-07T11:04:01.871Z,8.45
2019-02-07T11:06:35.063Z,8.35
2019-02-07T11:09:08.160Z,8.28
2019-02-07T11:11:37.450Z,8.51
2019-02-07T11:14:14.931Z,8.47
2019-02-07T11:16:42.840Z,8.42
2019-02-07T11:19:20.929Z,8.49
2019-02-07T11:21:55.042Z,8.28
2019-02-07T11:24:28.031Z,8.43
2019-02-07T11:27:11.229Z,8.40
2019-02-07T11:29:42.595Z,8.46
2019-02-07T11:32:10.920Z,8.32
2019-02-07T11:34:38.399Z,8.48
2019-02-07T11:37:09.882Z,8.52
2019-02-07T11:39:37.346Z,8.52
2019-02-07T11:42:10.238Z,8.29
2019-02-07T11:44:37.710Z,8.32
2019-02-07T11:47:20.084Z,8.36
2019-02-07T11:49:58.270Z,8.35
2019-02-07T11:52:32.395Z,8.47
2019-02-07T11:55:00.355Z,8.39
2019-02-07T11:57:44.543Z,8.57
2019-02-07T12:00:14.494Z,8.69
2019-02-07T12:02:59.665Z,8.66
2019-02-07T12:05:27.156Z,8.64
2019-02-07T12:07:54.649Z,8.54
2019-02-07T12:10:38.984Z,8.48
2019-02-07T12:13:11.428Z,8.59
2019-02-07T12:15:38.970Z,8.59
2019-02-07T12:18:12.111Z,8.47
2019-02-07T12:20:50.372Z,8.61
2019-02-07T12:23:18.526Z,8.58
2019-02-07T12:25:51.588Z,8.80
2019-02-07T12:28:38.704Z,8.78
2019-02-07T12:31:22.818Z,8.69
2019-02-07T12:34:05.162Z,8.67
2019-02-07T12:36:39.083Z,8.62
2019-02-07T12:39:17.184Z,8.68
2019-02-07T12:41:47.148Z,8.69
2019-02-07T12:44:17.532Z,8.74
2019-02-07T12:46:45.514Z,8.69
2019-02-07T12:49:28.710Z,8.66
2019-02-07T12:52:01.998Z,9.00
2019-02-07T12:54:33.026Z,8.86
2019-02-07T12:57:01.053Z,8.87
2019-02-07T12:59:34.029Z,8.89
2019-02-07T13:02:07.002Z,8.75
2019-02-07T13:04:49.707Z,9.20
2019-02-07T13:07:21.375Z,9.08
2019-02-07T13:10:04.722Z,9.11
2019-02-07T13:12:35.191Z,8.99
2019-02-07T13:15:04.573Z,8.98
2019-02-07T13:17:37.673Z,9.08
2019-02-07T13:20:10.771Z,9.02
2019-02-07T13:22:40.049Z,8.97
2019-02-07T13:25:11.957Z,9.22
2019-02-07T13:28:00.164Z,9.38
2019-02-07T13:30:28.584Z,9.24
2019-02-07T13:33:10.935Z,9.52
2019-02-07T13:35:53.324Z,9.48
2019-02-07T13:38:26.444Z,9.55
2019-02-07T13:41:03.777Z,9.28
2019-02-07T13:43:36.877Z,9.41
2019-02-07T13:46:10.017Z,9.56
2019-02-07T13:48:52.371Z,9.42
2019-02-07T13:51:34.696Z,9.30
2019-02-07T13:54:02.183Z,9.46
2019-02-07T13:56:44.886Z,9.45
2019-02-07T13:59:14.836Z,9.42
2019-02-07T14:01:48.156Z,9.39
2019-02-07T14:04:18.038Z,9.77
2019-02-07T14:06:52.149Z,9.57
2019-02-07T14:09:25.649Z,9.59
2019-02-07T14:12:03.915Z,9.62
2019-02-07T14:14:46.342Z,9.55
2019-02-07T14:17:14.070Z,9.23
2019-02-07T14:19:44.312Z,9.04
2019-02-07T14:22:15.322Z,9.08
2019-02-07T14:24:47.224Z,9.15
2019-02-07T14:27:15.222Z,9.20
2019-02-07T14:29:44.061Z,9.08
2019-02-07T14:32:24.399Z,9.11
2019-02-07T14:34:57.483Z,9.13
2019-02-07T14:37:30.537Z,9.11
2019-02-07T14:40:00.396Z,9.31
2019-02-07T14:42:44.598Z,9.39
2019-02-07T14:45:12.893Z,9.36
2019-02-07T14:47:40.387Z,9.53
2019-02-07T14:50:15.025Z,9.31
2019-02-07T14:52:35.550Z,9.19
2019-02-07T14:55:03.031Z,9.22
2019-02-07T14:57:30.468Z,9.26
2019-02-07T14:59:57.984Z,9.16
2019-02-07T15:02:25.583Z,9.25
2019-02-07T15:04:53.168Z,9.02
2019-02-07T15:07:20.643Z,9.03
2019-02-07T15:09:48.095Z,9.12
2019-02-07T15:12:15.554Z,9.15
2019-02-07T15:14:43.156Z,9.05
2019-02-07T15:17:10.641Z,8.94
2019-02-07T15:19:38.145Z,8.92
2019-02-07T15:22:05.654Z,8.94
2019-02-07T15:24:33.111Z,8.89
2019-02-07T15:27:00.591Z,8.86
2019-02-07T15:29:28.117Z,8.89
2019-02-07T15:31:55.613Z,8.87
2019-02-07T15:34:23.066Z,8.96
2019-02-07T15:36:50.541Z,8.82
2019-02-07T15:39:17.970Z,8.96
2019-02-07T15:41:45.425Z,8.87
2019-02-07T15:44:12.844Z,8.82
2019-02-07T15:46:40.376Z,8.86
2019-02-07T15:49:07.816Z,8.76
2019-02-07T15:51:35.284Z,8.91
2019-02-07T15:54:02.747Z,8.91
2019-02-07T15:56:30.215Z,8.78
2019-02-07T15:59:09.622Z,8.85
2019-02-07T16:01:37.068Z,8.80
2019-02-07T16:04:06.316Z,8.78
2019-02-07T16:06:33.804Z,8.70
2019-02-07T16:09:01.306Z,8.73
2019-02-07T16:11:28.778Z,8.72
2019-02-07T16:13:56.260Z,8.61
2019-02-07T16:16:23.730Z,8.65
2019-02-07T16:18:51.216Z,8.71
2019-02-07T16:21:18.697Z,8.62
2019-02-07T16:23:46.148Z,8.59
2019-02-07T16:26:13.654Z,8.81
2019-02-07T16:28:41.122Z,8.71
2019-02-07T16:31:08.622Z,8.79
2019-02-07T16:33:36.098Z,8.61
2019-02-07T16:36:03.554Z,8.75
2019-02-07T16:38:31.077Z,8.57
2019-02-07T16:40:58.534Z,8.32
2019-02-07T16:43:26.044Z,8.43
2019-02-07T16:45:54.161Z,8.41
2019-02-07T16:48:21.682Z,8.39
2019-02-07T16:50:59.631Z,8.44
2019-02-07T16:53:16.586Z,8.25
2019-02-07T16:55:44.981Z,8.32
2019-02-07T16:58:12.514Z,8.27
2019-02-07T17:00:40.079Z,8.19
2019-02-07T17:03:07.520Z,8.34
2019-02-07T17:05:37.693Z,8.32
2019-02-07T17:08:03.395Z,8.30
2019-02-07T17:10:32.567Z,8.32
2019-02-07T17:13:00.046Z,8.15
2019-02-07T17:15:27.491Z,8.32
2019-02-07T17:17:55.065Z,8.22
2019-02-07T17:20:30.882Z,8.05
2019-02-07T17:22:58.431Z,8.23
2019-02-07T17:25:25.868Z,8.03
2019-02-07T17:27:53.395Z,8.02
2019-02-07T17:30:20.840Z,8.10
2019-02-07T17:32:48.320Z,8.21
2019-02-07T17:35:15.778Z,8.01
2019-02-07T17:37:43.269Z,8.11
2019-02-07T17:40:15.129Z,7.88
2019-02-07T17:42:42.577Z,8.00
2019-02-07T17:45:10.938Z,8.11
2019-02-07T17:47:39.569Z,8.06
2019-02-07T17:50:07.062Z,7.93
2019-02-07T17:52:34.543Z,7.90
2019-02-07T17:55:02.017Z,7.92
2019-02-07T17:57:29.481Z,7.96
2019-02-07T17:59:56.969Z,7.88
2019-02-07T18:02:24.581Z,7.99
2019-02-07T18:04:52.042Z,7.93
2019-02-07T18:07:19.551Z,8.09
2019-02-07T18:09:47.022Z,7.99
2019-02-07T18:12:14.496Z,8.04
2019-02-07T18:14:42.015Z,7.93
2019-02-07T18:17:09.515Z,8.04
2019-02-07T18:19:36.993Z,7.96
2019-02-07T18:22:04.463Z,8.08
2019-02-07T18:24:31.907Z,8.05
2019-02-07T18:26:59.355Z,8.00
2019-02-07T18:29:26.867Z,7.90
2019-02-07T18:31:54.381Z,8.03
2019-02-07T18:34:21.807Z,7.97
2019-02-07T18:36:49.370Z,7.96
2019-02-07T18:39:16.854Z,8.05
2019-02-07T18:41:44.410Z,8.07
2019-02-07T18:44:11.880Z,8.00
2019-02-07T18:46:39.442Z,7.95
2019-02-07T18:49:06.940Z,7.65
2019-02-07T18:51:44.959Z,7.62
2019-02-07T18:54:01.903Z,7.61
2019-02-07T18:56:29.351Z,7.53
2019-02-07T18:58:57.188Z,7.58
2019-02-07T19:01:24.686Z,7.52
2019-02-07T19:03:52.192Z,7.54
2019-02-07T19:06:19.695Z,7.66
2019-02-07T19:08:47.251Z,7.60
2019-02-07T19:11:14.739Z,7.69
2019-02-07T19:13:42.228Z,7.68
2019-02-07T19:16:09.730Z,7.47
2019-02-07T19:18:37.177Z,7.63
2019-02-07T19:21:04.663Z,7.48
2019-02-07T19:23:32.147Z,7.40
2019-02-07T19:25:59.643Z,7.47
2019-02-07T19:28:27.833Z,7.54
2019-02-07T19:30:55.387Z,7.39
2019-02-07T19:33:22.832Z,7.41
2019-02-07T19:35:50.344Z,7.44
2019-02-07T19:38:17.843Z,7.46
2019-02-07T19:40:45.343Z,7.47
2019-02-07T19:43:12.930Z,7.53
2019-02-07T19:45:40.392Z,7.52
2019-02-07T19:48:07.906Z,7.57
2019-02-07T19:50:35.363Z,7.36
2019-02-07T19:53:02.846Z,7.56
2019-02-07T19:55:30.311Z,7.59
2019-02-07T19:57:58.418Z,7.38
2019-02-07T20:00:25.876Z,7.19
2019-02-07T20:02:53.425Z,7.31
2019-02-07T20:05:20.897Z,7.27
2019-02-07T20:07:48.365Z,7.34
2019-02-07T20:10:17.397Z,7.28
2019-02-07T20:12:44.831Z,7.34
2019-02-07T20:15:12.338Z,7.44
2019-02-07T20:17:39.812Z,7.29
2019-02-07T20:20:07.302Z,7.23
2019-02-07T20:22:34.821Z,7.22
2019-02-07T20:25:02.278Z,7.25
2019-02-07T20:27:29.837Z,7.28
2019-02-07T20:29:57.468Z,7.32
2019-02-07T20:32:24.944Z,7.31
2019-02-07T20:34:52.466Z,7.20
2019-02-07T20:37:19.932Z,7.21
2019-02-07T20:39:47.584Z,7.05
2019-02-07T20:42:15.042Z,6.94
2019-02-07T20:44:42.608Z,6.97
2019-02-07T20:47:10.114Z,7.06
2019-02-07T20:49:37.610Z,6.87
2019-02-07T20:52:05.116Z,6.81
2019-02-07T20:54:32.591Z,6.97
2019-02-07T20:57:00.075Z,6.90
2019-02-07T20:59:27.580Z,6.99
2019-02-07T21:01:55.045Z,6.92
2019-02-07T21:04:22.667Z,6.94
2019-02-07T21:06:50.140Z,6.95
2019-02-07T21:09:17.640Z,6.95
2019-02-07T21:11:45.084Z,6.95
2019-02-07T21:14:12.622Z,7.08
2019-02-07T21:16:40.112Z,6.95
2019-02-07T21:19:07.613Z,7.00
2019-02-07T21:21:35.100Z,6.92
2019-02-07T21:24:03.480Z,6.92
2019-02-07T21:26:31.033Z,7.07
2019-02-07T21:28:58.510Z,6.81
2019-02-07T21:31:26.073Z,6.85
2019-02-07T21:33:53.562Z,6.92
2019-02-07T21:36:21.044Z,6.96
2019-02-07T21:38:48.579Z,6.86
2019-02-07T21:41:16.084Z,6.92
2019-02-07T21:43:43.546Z,6.99
2019-02-07T21:46:11.034Z,6.87
2019-02-07T21:48:38.497Z,6.92
2019-02-07T21:51:05.979Z,7.06
2019-02-07T21:53:33.479Z,6.97
2019-02-07T21:56:00.927Z,7.04
2019-02-07T21:58:28.389Z,7.02
2019-02-07T22:00:56.493Z,7.08
2019-02-07T22:03:24.067Z,7.01
2019-02-07T22:05:51.537Z,7.09
2019-02-07T22:08:19.075Z,7.02
2019-02-07T22:10:46.547Z,7.09
2019-02-07T22:13:14.094Z,7.04
2019-02-07T22:15:41.613Z,6.91
2019-02-07T22:18:09.239Z,7.04
2019-02-07T22:20:36.696Z,6.92
2019-02-07T22:23:04.262Z,7.03
2019-02-07T22:25:31.772Z,7.09
2019-02-07T22:27:59.348Z,7.08
2019-02-07T22:30:27.764Z,6.97
2019-02-07T22:32:55.205Z,6.83
2019-02-07T22:35:22.715Z,7.04
2019-02-07T22:37:50.193Z,6.91
2019-02-07T22:40:17.660Z,6.79
2019-02-07T22:42:48.011Z,6.99
2019-02-07T22:45:12.805Z,6.93
2019-02-07T22:47:40.457Z,6.83
2019-02-07T22:50:10.651Z,6.93
2019-02-07T22:52:38.104Z,6.87
2019-02-07T22:55:05.568Z,6.79
2019-02-07T22:57:33.511Z,6.75
2019-02-07T23:00:01.092Z,6.72
2019-02-07T23:02:28.618Z,6.78
2019-02-07T23:04:56.127Z,6.81
2019-02-07T23:07:23.792Z,6.90
2019-02-07T23:09:51.245Z,6.84
2019-02-07T23:12:19.091Z,6.69
2019-02-07T23:14:46.540Z,6.88
2019-02-07T23:17:14.114Z,6.80
2019-02-07T23:19:42.455Z,6.81
2019-02-07T23:22:10.281Z,6.68
2019-02-07T23:24:37.862Z,6.70
2019-02-07T23:27:05.343Z,6.84
2019-02-07T23:29:33.726Z,6.80
2019-02-07T23:32:01.193Z,6.75
2019-02-07T23:34:28.682Z,6.88
2019-02-07T23:36:56.240Z,6.85
2019-02-07T23:39:23.680Z,6.71
2019-02-07T23:41:51.255Z,6.80
2019-02-07T23:44:18.800Z,6.89
2019-02-07T23:46:46.366Z,6.72
2019-02-07T23:49:13.820Z,6.93
2019-02-07T23:51:41.302Z,6.78
2019-02-07T23:54:08.853Z,6.77
2019-02-07T23:56:36.334Z,6.58
2019-02-07T23:59:03.943Z,6.59
